createdAt,value
2018-01-01T00:00:05.300Z,39.37
2018-01-01T00:02:33.067Z,43.10
2018-01-01T00:05:00.729Z,45.37
2018-01-01T00:07:28.441Z,31.10
2018-01-01T00:09:56.175Z,30.97
2018-01-01T00:12:23.835Z,31.13
2018-01-01T00:14:51.609Z,34.33
2018-01-01T00:17:21.175Z,36.37
2018-01-01T00:19:48.949Z,36.33
2018-01-01T00:22:20.655Z,38.17
2018-01-01T00:24:48.283Z,34.63
2018-01-01T00:27:16.223Z,33.70
2018-01-01T00:29:43.873Z,31.87
2018-01-01T00:32:13.630Z,31.00
2018-01-01T00:34:42.171Z,29.87
2018-01-01T00:37:09.919Z,28.53
2018-01-01T00:39:37.612Z,29.03
2018-01-01T00:42:05.325Z,26.23
2018-01-01T00:44:33.316Z,25.50
2018-01-01T00:47:01.729Z,23.90
2018-01-01T00:49:29.519Z,23.33
2018-01-01T00:51:57.231Z,24.00
2018-01-01T00:54:24.989Z,31.90
2018-01-01T00:56:54.232Z,30.37
2018-01-01T00:59:21.909Z,35.07
2018-01-01T01:01:49.561Z,31.87
2018-01-01T01:04:17.233Z,34.47
2018-01-01T01:06:46.586Z,35.00
2018-01-01T01:09:14.251Z,36.10
2018-01-01T01:11:41.891Z,34.13
2018-01-01T01:14:09.533Z,34.33
2018-01-01T01:16:37.133Z,34.00
2018-01-01T01:19:04.865Z,36.77
2018-01-01T01:21:32.557Z,35.50
2018-01-01T01:24:00.907Z,34.70
2018-01-01T01:26:28.589Z,34.80
2018-01-01T01:28:58.003Z,34.57
2018-01-01T01:31:26.796Z,34.23
2018-01-01T01:33:54.749Z,33.57
2018-01-01T01:36:22.433Z,32.87
2018-01-01T01:38:50.147Z,32.10
2018-01-01T01:41:19.503Z,34.43
2018-01-01T01:43:47.261Z,33.67
2018-01-01T01:46:14.935Z,36.37
2018-01-01T01:48:47.449Z,36.60
2018-01-01T01:51:15.119Z,40.03
2018-01-01T01:53:42.779Z,40.67
2018-01-01T01:56:10.423Z,38.10
2018-01-01T01:58:38.561Z,40.10
2018-01-01T02:01:06.941Z,43.40
2018-01-01T02:03:34.809Z,42.10
2018-01-01T02:06:02.459Z,46.40
2018-01-01T02:08:30.091Z,51.27
2018-01-01T02:10:57.747Z,53.00
2018-01-01T02:13:25.390Z,61.93
2018-01-01T02:15:53.049Z,69.83
2018-01-01T02:18:21.527Z,73.67
2018-01-01T02:20:49.218Z,73.70
2018-01-01T02:23:18.330Z,68.40
2018-01-01T02:25:46.059Z,72.47
2018-01-01T02:28:13.991Z,68.70
2018-01-01T02:30:44.284Z,71.57
2018-01-01T02:33:13.780Z,69.87
2018-01-01T02:35:41.608Z,70.17
2018-01-01T02:38:11.074Z,75.67
2018-01-01T02:40:38.928Z,74.67
2018-01-01T02:43:06.629Z,76.23
2018-01-01T02:45:35.532Z,82.50
2018-01-01T02:48:03.187Z,80.43
2018-01-01T02:50:31.614Z,75.67
2018-01-01T02:52:59.258Z,74.20
2018-01-01T02:55:27.660Z,68.60
2018-01-01T02:57:55.346Z,68.27
2018-01-01T03:00:24.652Z,59.33
2018-01-01T03:02:52.433Z,55.67
2018-01-01T03:05:20.092Z,52.90
2018-01-01T03:07:47.782Z,52.30
2018-01-01T03:10:15.416Z,52.97
2018-01-01T03:12:43.082Z,50.57
2018-01-01T03:15:10.740Z,50.67
2018-01-01T03:17:38.388Z,51.40
2018-01-01T03:20:06.783Z,52.17
2018-01-01T03:22:34.464Z,54.97
2018-01-01T03:25:02.444Z,57.40
2018-01-01T03:27:30.284Z,58.73
2018-01-01T03:29:57.940Z,58.63
2018-01-01T03:32:25.852Z,60.37
2018-01-01T03:34:53.558Z,60.23
2018-01-01T03:37:21.232Z,59.07
2018-01-01T03:39:48.876Z,59.37
2018-01-01T03:42:16.552Z,59.40
2018-01-01T03:44:44.204Z,63.57
2018-01-01T03:47:11.890Z,68.00
2018-01-01T03:49:39.564Z,61.70
2018-01-01T03:52:07.209Z,63.37
2018-01-01T03:54:34.888Z,66.23
2018-01-01T03:57:02.643Z,61.30
2018-01-01T03:59:30.367Z,62.83
2018-01-01T04:01:58.056Z,59.57
2018-01-01T04:04:26.602Z,63.43
2018-01-01T04:06:54.263Z,61.50
2018-01-01T04:09:21.975Z,60.20
2018-01-01T04:11:49.716Z,54.03
2018-01-01T04:14:17.493Z,52.37
2018-01-01T04:16:46.950Z,45.43
2018-01-01T04:19:14.682Z,47.03
2018-01-01T04:21:42.374Z,44.90
2018-01-01T04:24:11.752Z,41.50
2018-01-01T04:26:39.492Z,42.60
2018-01-01T04:29:07.119Z,41.63
2018-01-01T04:31:36.582Z,40.70
2018-01-01T04:34:06.175Z,37.60
2018-01-01T04:36:33.950Z,34.40
2018-01-01T04:39:03.373Z,28.83
2018-01-01T04:41:31.097Z,27.13
2018-01-01T04:43:59.791Z,23.63
2018-01-01T04:46:27.551Z,22.87
2018-01-01T04:48:55.215Z,14.40
2018-01-01T04:51:22.903Z,12.90
2018-01-01T04:53:50.532Z,12.40
2018-01-01T04:56:20.241Z,12.90
2018-01-01T04:58:47.935Z,12.10
2018-01-01T05:01:16.314Z,10.97
2018-01-01T05:03:44.792Z,11.30
2018-01-01T05:06:12.638Z,8.83
2018-01-01T05:08:40.441Z,6.83
2018-01-01T05:11:08.813Z,6.30
2018-01-01T05:13:38.193Z,5.60
2018-01-01T05:16:08.681Z,4.03
2018-01-01T05:18:36.496Z,3.83
2018-01-01T05:21:04.143Z,2.73
2018-01-01T05:23:31.917Z,2.70
2018-01-01T05:26:00.379Z,2.53
2018-01-01T05:28:28.145Z,2.10
2018-01-01T05:30:55.780Z,2.37
2018-01-01T05:33:23.377Z,2.37
2018-01-01T05:35:51.051Z,2.13
2018-01-01T05:38:18.764Z,1.80
2018-01-01T05:40:46.457Z,2.10
2018-01-01T05:43:14.099Z,1.70
2018-01-01T05:45:41.755Z,1.83
2018-01-01T05:48:09.388Z,1.47
2018-01-01T05:50:37.068Z,1.50
2018-01-01T05:53:05.136Z,1.47
2018-01-01T05:55:32.805Z,1.30
2018-01-01T05:58:00.605Z,1.60
2018-01-01T06:00:28.291Z,1.43
2018-01-01T06:02:55.951Z,1.60
2018-01-01T06:05:23.679Z,1.50
2018-01-01T06:07:51.333Z,1.50
2018-01-01T06:10:19.108Z,1.40
2018-01-01T06:12:46.737Z,1.70
2018-01-01T06:15:14.369Z,2.03
2018-01-01T06:17:42.037Z,1.70
2018-01-01T06:20:10.209Z,1.53
2018-01-01T06:22:39.641Z,1.40
2018-01-01T06:25:07.357Z,1.87
2018-01-01T06:27:35.031Z,2.00
2018-01-01T06:30:02.645Z,1.43
2018-01-01T06:32:30.353Z,1.47
2018-01-01T06:34:57.967Z,1.50
2018-01-01T06:37:25.631Z,1.23
2018-01-01T06:39:53.303Z,1.37
2018-01-01T06:42:22.806Z,1.20
2018-01-01T06:44:50.493Z,1.07
2018-01-01T06:47:18.426Z,1.20
2018-01-01T06:49:46.135Z,1.47
2018-01-01T06:52:13.798Z,1.43
2018-01-01T06:54:41.453Z,1.40
2018-01-01T06:57:09.117Z,1.10
2018-01-01T06:59:36.787Z,1.40
2018-01-01T07:02:04.460Z,1.00
2018-01-01T07:04:32.237Z,1.03
2018-01-01T07:06:59.863Z,1.00
2018-01-01T07:09:27.525Z,1.23
2018-01-01T07:11:56.155Z,0.90
2018-01-01T07:14:26.543Z,0.80
2018-01-01T07:16:55.975Z,0.83
2018-01-01T07:19:23.825Z,0.90
2018-01-01T07:21:51.497Z,1.00
2018-01-01T07:24:19.155Z,0.90
2018-01-01T07:26:48.528Z,1.00
2018-01-01T07:29:17.349Z,0.90
2018-01-01T07:31:45.071Z,0.90
2018-01-01T07:34:13.479Z,0.90
2018-01-01T07:36:41.200Z,0.87
2018-01-01T07:39:08.863Z,1.00
2018-01-01T07:41:36.541Z,0.90
2018-01-01T07:44:04.203Z,0.77
2018-01-01T07:46:31.839Z,1.03
2018-01-01T07:48:59.577Z,0.93
2018-01-01T07:51:27.242Z,1.10
2018-01-01T07:53:54.911Z,0.87
2018-01-01T07:56:22.535Z,1.13
2018-01-01T07:58:50.197Z,1.53
2018-01-01T08:01:17.803Z,1.23
2018-01-01T08:03:45.451Z,1.30
2018-01-01T08:06:13.087Z,0.87
2018-01-01T08:08:43.705Z,1.03
2018-01-01T08:11:11.403Z,1.23
2018-01-01T08:13:39.179Z,1.67
2018-01-01T08:16:07.581Z,1.83
2018-01-01T08:18:35.241Z,1.40
2018-01-01T08:21:04.166Z,1.00
2018-01-01T08:23:31.793Z,1.20
2018-01-01T08:25:59.645Z,1.17
2018-01-01T08:28:27.350Z,1.07
2018-01-01T08:30:56.710Z,1.23
2018-01-01T08:33:24.390Z,1.10
2018-01-01T08:35:53.729Z,1.20
2018-01-01T08:38:21.454Z,1.27
2018-01-01T08:40:49.871Z,0.97
2018-01-01T08:43:19.219Z,1.10
2018-01-01T08:45:47.062Z,0.90
2018-01-01T08:48:14.699Z,0.90
2018-01-01T08:50:44.103Z,1.00
2018-01-01T08:53:11.860Z,1.20
2018-01-01T08:55:39.852Z,1.13
2018-01-01T08:58:07.512Z,1.10
2018-01-01T09:00:37.077Z,1.13
2018-01-01T09:03:04.782Z,1.20
2018-01-01T09:05:32.477Z,1.30
2018-01-01T09:08:00.210Z,0.97
2018-01-01T09:10:28.832Z,1.00
2018-01-01T09:12:56.608Z,1.23
2018-01-01T09:15:25.518Z,1.00
2018-01-01T09:17:53.280Z,0.90
2018-01-01T09:20:20.955Z,1.00
2018-01-01T09:22:48.774Z,1.30
2018-01-01T09:25:17.264Z,1.30
2018-01-01T09:27:44.907Z,0.93
2018-01-01T09:30:12.590Z,1.30
2018-01-01T09:32:40.212Z,0.83
2018-01-01T09:35:08.795Z,1.10
2018-01-01T09:37:36.433Z,1.20
2018-01-01T09:40:04.137Z,1.20
2018-01-01T09:42:33.670Z,1.00
2018-01-01T09:45:01.551Z,1.13
2018-01-01T09:47:29.204Z,1.13
2018-01-01T09:49:56.868Z,1.20
2018-01-01T09:52:24.549Z,1.17
2018-01-01T09:54:52.224Z,1.40
2018-01-01T09:57:19.912Z,2.93
2018-01-01T09:59:48.337Z,2.67
2018-01-01T10:02:16.666Z,1.77
2018-01-01T10:04:44.315Z,1.47
2018-01-01T10:07:11.990Z,1.23
2018-01-01T10:09:39.703Z,1.30
2018-01-01T10:12:07.374Z,1.00
2018-01-01T10:14:35.041Z,1.20
2018-01-01T10:17:04.529Z,0.70
2018-01-01T10:19:32.209Z,1.07
2018-01-01T10:21:59.921Z,0.90
2018-01-01T10:24:30.247Z,0.80
2018-01-01T10:26:57.929Z,1.00
2018-01-01T10:29:27.342Z,1.43
2018-01-01T10:31:55.102Z,1.13
2018-01-01T10:34:22.874Z,0.90
2018-01-01T10:36:51.340Z,1.30
2018-01-01T10:39:19.040Z,1.10
2018-01-01T10:41:46.814Z,1.23
2018-01-01T10:44:14.663Z,1.00
2018-01-01T10:46:42.319Z,0.97
2018-01-01T10:49:10.063Z,1.03
2018-01-01T10:51:38.347Z,1.77
2018-01-01T10:54:06.029Z,1.20
2018-01-01T10:56:35.563Z,1.30
2018-01-01T10:59:03.315Z,1.80
2018-01-01T11:01:30.971Z,1.80
2018-01-01T11:03:58.635Z,1.10
2018-01-01T11:06:26.416Z,1.10
2018-01-01T11:08:55.878Z,1.30
2018-01-01T11:11:23.667Z,1.57
2018-01-01T11:13:52.936Z,1.10
2018-01-01T11:16:20.898Z,1.43
2018-01-01T11:18:48.618Z,1.20
2018-01-01T11:21:16.318Z,1.40
2018-01-01T11:23:43.943Z,1.20
2018-01-01T11:26:11.660Z,1.13
2018-01-01T11:28:41.072Z,1.47
2018-01-01T11:31:08.809Z,1.10
2018-01-01T11:33:36.535Z,1.40
2018-01-01T11:36:04.232Z,1.77
2018-01-01T11:38:32.141Z,1.43
2018-01-01T11:41:00.558Z,1.33
2018-01-01T11:43:28.410Z,1.50
2018-01-01T11:45:57.034Z,1.47
2018-01-01T11:48:24.721Z,1.10
2018-01-01T11:50:54.173Z,1.60
2018-01-01T11:53:22.712Z,1.90
2018-01-01T11:55:50.338Z,1.10
2018-01-01T11:58:18.753Z,1.17
2018-01-01T12:00:48.310Z,1.40
2018-01-01T12:03:16.070Z,1.20
2018-01-01T12:05:44.490Z,1.43
2018-01-01T12:08:14.231Z,1.50
2018-01-01T12:10:42.915Z,1.73
2018-01-01T12:13:10.588Z,1.10
2018-01-01T12:15:38.389Z,1.47
2018-01-01T12:18:06.014Z,2.00
2018-01-01T12:20:34.602Z,1.30
2018-01-01T12:23:02.255Z,1.40
2018-01-01T12:25:29.926Z,1.73
2018-01-01T12:27:57.690Z,2.33
2018-01-01T12:30:28.023Z,1.30
2018-01-01T12:32:55.818Z,1.20
2018-01-01T12:35:23.492Z,1.60
2018-01-01T12:37:51.846Z,1.33
2018-01-01T12:40:19.633Z,1.20
2018-01-01T12:42:47.274Z,1.43
2018-01-01T12:45:18.068Z,1.37
2018-01-01T12:47:45.922Z,1.50
2018-01-01T12:50:14.376Z,1.60
2018-01-01T12:52:42.154Z,1.77
2018-01-01T12:55:10.080Z,1.77
2018-01-01T12:57:37.768Z,3.00
2018-01-01T13:00:07.386Z,1.83
2018-01-01T13:02:35.149Z,1.87
2018-01-01T13:05:04.623Z,1.00
2018-01-01T13:07:34.459Z,1.60
2018-01-01T13:10:03.720Z,1.60
2018-01-01T13:12:31.475Z,1.90
2018-01-01T13:14:59.166Z,2.27
2018-01-01T13:17:27.594Z,2.30
2018-01-01T13:19:55.442Z,1.50
2018-01-01T13:22:23.190Z,2.20
2018-01-01T13:24:51.820Z,1.60
2018-01-01T13:27:19.451Z,1.50
2018-01-01T13:29:47.200Z,1.77
2018-01-01T13:32:14.927Z,1.60
2018-01-01T13:34:42.603Z,1.67
2018-01-01T13:37:10.580Z,1.30
2018-01-01T13:39:38.351Z,1.30
2018-01-01T13:42:07.334Z,1.60
2018-01-01T13:44:35.806Z,2.20
2018-01-01T13:47:04.209Z,1.70
2018-01-01T13:49:31.954Z,1.20
2018-01-01T13:51:59.559Z,1.73
2018-01-01T13:54:27.288Z,1.57
2018-01-01T13:56:55.683Z,2.30
2018-01-01T13:59:23.548Z,1.90
2018-01-01T14:01:51.229Z,1.70
2018-01-01T14:04:18.947Z,2.07
2018-01-01T14:06:48.650Z,1.27
2018-01-01T14:09:16.373Z,1.10
2018-01-01T14:11:44.682Z,1.70
2018-01-01T14:14:13.583Z,2.13
2018-01-01T14:16:41.907Z,2.30
2018-01-01T14:19:09.688Z,2.00
2018-01-01T14:21:37.376Z,2.20
2018-01-01T14:24:05.014Z,2.30
2018-01-01T14:26:32.806Z,1.60
2018-01-01T14:29:00.537Z,1.60
2018-01-01T14:31:28.696Z,1.60
2018-01-01T14:33:56.296Z,1.87
2018-01-01T14:36:23.983Z,1.50
2018-01-01T14:38:51.636Z,1.53
2018-01-01T14:41:21.132Z,1.40
2018-01-01T14:43:48.790Z,1.40
2018-01-01T14:46:19.165Z,1.70
2018-01-01T14:48:46.849Z,1.67
2018-01-01T14:51:14.441Z,1.77
2018-01-01T14:53:42.071Z,3.30
2018-01-01T14:56:10.511Z,1.90
2018-01-01T14:58:38.159Z,1.57
2018-01-01T15:01:05.832Z,1.20
2018-01-01T15:03:33.457Z,1.30
2018-01-01T15:06:01.182Z,1.70
2018-01-01T15:08:29.251Z,1.40
2018-01-01T15:10:56.932Z,1.30
2018-01-01T15:53:48.217Z,1.70
2018-01-01T16:00:34.530Z,1.40
2018-01-01T16:03:02.140Z,2.13
2018-01-01T16:05:29.739Z,2.30
2018-01-01T16:07:57.308Z,2.23
2018-01-01T16:13:05.739Z,2.90
2018-01-01T16:15:33.294Z,3.07
2018-01-01T16:18:04.660Z,3.93
2018-01-01T16:20:32.218Z,4.43
2018-01-01T16:22:59.879Z,4.70
2018-01-01T16:25:27.471Z,6.47
2018-01-01T16:27:55.043Z,10.00
2018-01-01T16:30:22.646Z,12.03
2018-01-01T16:32:50.243Z,26.07
2018-01-01T16:35:17.974Z,17.50
2018-01-01T16:37:45.587Z,14.23
2018-01-01T16:40:13.175Z,10.70
2018-01-01T16:42:40.784Z,12.10
2018-01-01T16:45:08.349Z,12.20
2018-01-01T16:47:36.025Z,11.13
2018-01-01T16:50:03.632Z,9.57
2018-01-01T16:52:31.275Z,10.10
2018-01-01T16:54:58.900Z,9.00
2018-01-01T16:57:26.509Z,9.93
2018-01-01T16:59:54.133Z,11.40
2018-01-01T17:02:21.752Z,15.00
2018-01-01T17:04:49.725Z,14.23
2018-01-01T17:07:17.271Z,11.57
2018-01-01T17:09:45.096Z,9.30
2018-01-01T17:12:12.904Z,7.70
2018-01-01T17:14:40.516Z,10.00
2018-01-01T17:17:08.173Z,8.67
2018-01-01T17:19:35.782Z,14.67
2018-01-01T17:22:03.420Z,13.23
2018-01-01T17:24:31.073Z,18.20
2018-01-01T17:26:58.643Z,22.87
2018-01-01T17:29:26.217Z,16.50
2018-01-01T17:31:53.863Z,13.23
2018-01-01T17:34:21.464Z,10.57
2018-01-01T17:36:49.262Z,12.13
2018-01-01T17:39:16.820Z,15.47
2018-01-01T17:41:44.538Z,13.60
2018-01-01T17:44:12.198Z,14.30
2018-01-01T17:46:39.871Z,11.23
2018-01-01T17:49:07.809Z,10.80
2018-01-01T17:51:35.441Z,11.03
2018-01-01T17:54:03.185Z,13.43
2018-01-01T17:56:30.818Z,15.50
2018-01-01T17:58:58.399Z,13.77
2018-01-01T18:01:26.131Z,12.40
2018-01-01T18:03:53.878Z,21.50
2018-01-01T18:06:21.470Z,23.47
2018-01-01T18:08:49.117Z,27.67
2018-01-01T18:11:16.755Z,21.93
2018-01-01T18:13:44.424Z,13.07
2018-01-01T18:16:12.461Z,9.97
2018-01-01T18:18:40.326Z,9.23
2018-01-01T18:21:07.981Z,6.37
2018-01-01T18:23:35.605Z,6.03
2018-01-01T18:26:03.399Z,5.40
2018-01-01T18:28:31.063Z,8.30
2018-01-01T18:30:59.313Z,10.17
2018-01-01T18:33:26.925Z,14.97
2018-01-01T18:35:54.946Z,13.97
2018-01-01T18:38:23.688Z,13.57
2018-01-01T18:40:51.335Z,11.87
2018-01-01T18:43:19.104Z,9.07
2018-01-01T18:45:46.744Z,9.13
2018-01-01T18:48:14.450Z,8.67
2018-01-01T18:50:43.535Z,8.57
2018-01-01T18:53:11.397Z,7.87
2018-01-01T18:55:39.086Z,7.87
2018-01-01T18:58:06.779Z,9.20
2018-01-01T19:00:34.443Z,8.93
2018-01-01T19:03:03.124Z,7.70
2018-01-01T19:05:31.040Z,9.87
2018-01-01T19:07:58.895Z,8.47
2018-01-01T19:10:26.568Z,10.83
2018-01-01T19:12:54.223Z,11.47
2018-01-01T19:15:21.828Z,9.70
2018-01-01T19:17:49.503Z,8.27
2018-01-01T19:20:17.618Z,9.57
2018-01-01T19:22:45.284Z,9.07
2018-01-01T19:25:12.912Z,9.67
2018-01-01T19:27:40.596Z,9.40
2018-01-01T19:30:08.324Z,12.20
2018-01-01T19:32:36.041Z,16.27
2018-01-01T19:35:03.760Z,21.47
2018-01-01T19:37:31.573Z,20.30
2018-01-01T19:39:59.210Z,14.60
2018-01-01T19:42:26.867Z,11.13
2018-01-01T19:44:54.674Z,10.77
2018-01-01T19:47:22.479Z,9.60
2018-01-01T19:49:50.413Z,6.50
2018-01-01T19:52:18.159Z,5.33
2018-01-01T19:54:45.909Z,7.97
2018-01-01T19:57:13.643Z,7.10
2018-01-01T19:59:41.333Z,6.57
2018-01-01T20:02:09.194Z,8.43
2018-01-01T20:04:36.912Z,8.10
2018-01-01T20:07:04.606Z,4.73
2018-01-01T20:09:32.353Z,4.80
2018-01-01T20:12:00.049Z,3.70
2018-01-01T20:14:27.845Z,3.17
2018-01-01T20:16:55.547Z,3.60
2018-01-01T20:19:23.642Z,3.47
2018-01-01T20:21:51.364Z,3.10
2018-01-01T20:24:19.090Z,3.10
2018-01-01T20:26:46.871Z,2.97
2018-01-01T20:29:14.548Z,3.70
2018-01-01T20:31:42.284Z,4.13
2018-01-01T20:34:10.023Z,4.07
2018-01-01T20:36:37.729Z,4.83
2018-01-01T20:39:05.520Z,5.57
2018-01-01T20:41:33.226Z,4.80
2018-01-01T20:44:01.881Z,5.03
2018-01-01T20:46:29.614Z,4.60
2018-01-01T20:48:57.328Z,4.90
2018-01-01T20:51:25.061Z,4.63
2018-01-01T20:53:52.727Z,4.13
2018-01-01T20:56:20.493Z,4.63
2018-01-01T20:58:48.802Z,5.70
2018-01-01T21:01:16.589Z,4.70
2018-01-01T21:03:44.283Z,4.37
2018-01-01T21:06:12.087Z,8.10
2018-01-01T21:08:39.888Z,6.80
2018-01-01T21:11:07.622Z,6.80
2018-01-01T21:13:35.363Z,5.93
2018-01-01T21:16:03.513Z,8.00
2018-01-01T21:18:31.379Z,7.20
2018-01-01T21:20:59.063Z,6.53
2018-01-01T21:23:26.726Z,7.50
2018-01-01T21:25:54.510Z,7.07
2018-01-01T21:28:22.203Z,8.00
2018-01-01T21:30:50.801Z,6.33
2018-01-01T21:33:18.479Z,5.93
2018-01-01T21:35:46.686Z,8.00
2018-01-01T21:38:15.199Z,8.40
2018-01-01T21:40:42.809Z,5.63
2018-01-01T21:43:10.635Z,3.77
2018-01-01T21:45:39.149Z,2.90
2018-01-01T21:48:06.880Z,3.60
2018-01-01T21:50:34.751Z,6.27
2018-01-01T21:53:02.361Z,3.77
2018-01-01T21:55:30.133Z,2.93
2018-01-01T21:57:57.683Z,3.07
2018-01-01T22:00:25.279Z,2.63
2018-01-01T22:02:53.358Z,2.23
2018-01-01T22:05:20.947Z,2.63
2018-01-01T22:07:48.645Z,2.80
2018-01-01T22:10:17.221Z,2.60
2018-01-01T22:12:49.416Z,2.60
2018-01-01T22:15:16.953Z,3.10
2018-01-01T22:17:44.674Z,3.30
2018-01-01T22:20:12.407Z,3.10
2018-01-01T22:22:39.944Z,3.27
2018-01-01T22:25:07.559Z,3.57
2018-01-01T22:27:35.208Z,3.00
2018-01-01T22:30:04.637Z,2.70
2018-01-01T22:32:32.282Z,3.07
2018-01-01T22:34:59.930Z,2.90
2018-01-01T22:37:27.830Z,2.80
2018-01-01T22:39:55.362Z,3.27
2018-01-01T22:42:22.947Z,3.90
2018-01-01T22:44:50.636Z,2.80
2018-01-01T22:47:18.196Z,2.60
2018-01-01T22:49:45.819Z,3.10
2018-01-01T22:52:13.580Z,3.43
2018-01-01T22:54:41.118Z,3.30
2018-01-01T22:57:08.727Z,3.03
2018-01-01T22:59:36.276Z,3.10
2018-01-01T23:02:04.133Z,2.53
2018-01-01T23:04:31.674Z,2.20
2018-01-01T23:06:59.220Z,1.90
2018-01-01T23:09:30.350Z,1.90
2018-01-01T23:11:57.922Z,1.43
2018-01-01T23:14:25.490Z,1.47
2018-01-01T23:16:53.084Z,1.27
2018-01-01T23:19:21.389Z,1.00
2018-01-01T23:21:48.965Z,1.00
2018-01-01T23:24:16.525Z,0.80
2018-01-01T23:26:44.121Z,1.00
2018-01-01T23:29:11.689Z,0.70
2018-01-01T23:31:39.385Z,0.80
2018-01-01T23:34:06.921Z,0.80
2018-01-01T23:36:35.455Z,0.70
2018-01-01T23:39:03.017Z,0.60
2018-01-01T23:41:30.571Z,0.80
2018-01-01T23:43:59.340Z,0.70
2018-01-01T23:46:27.084Z,0.70
2018-01-01T23:48:55.231Z,0.60
2018-01-01T23:51:24.678Z,0.63
2018-01-01T23:53:52.584Z,0.80
2018-01-01T23:56:22.968Z,0.70
2018-01-01T23:58:50.814Z,0.80
